Domov               UVHVVR             MKGP            O straneh              
ZDRAVSTVENO VARSTVO RASTLIN
  MREŽA AGROMET. POSTAJ
 ► PROGNOSTIČNA OBVESTILA
AGROMETEOROLOŠKI PODATKI -
ARSO
OBVLADOVANJE TVEGANJ ZARADI
NEUGODNIH VREMENSKIH RAZMER
  ► NARAVNE NESREČE
  ► SUŠA/MOČA
  ► NAMAKANJE
  ► ŽLED (gozdarstvo)
KARTOGRAFSKI PRIKAZI
SPLETNE POVEZAVE
PROJEKTI IN PUBLIKACIJE

AGROMETEOROLOŠKA MREŽA: VREMENSKE POSTAJE IN FENOLOŠKA OPAZOVANJA

Pregled podatkov za lokacijo Maribor - BTŠ, meteorološka postaja 35810

Pregled senzorjev na lokaciji

ID Ime Zadnja
vrednost
Datum in čas
zadnje
spremembe
(Lokalni čas)
Tip
senzorja
4297 Omočenost lista (U) 10 U 19.8.2019 05:30 A730WET
1723 Padavine (mm) 0 mm 19.8.2019 05:30 Generic 0.2 mm
1722 Relativna vlaga 2 m (% RH) 94.92 % RH 19.8.2019 05:30 Generic 0 - 100 %
1721 Temperatura 2 m (°C) 15.02 °C 19.8.2019 05:30 Generic -40 - +60 °C
4296 Smer vetra (°) 190.33 ° 19.8.2019 05:30 Generic 0 - 360
4295 Hitrost vetra (km/h) 0.49 km/h 19.8.2019 05:30 Generic 100 km/h

Pregled podatkov zadnjih 24 ur

Zap.
št.
Datum in čas
(Centralno
evropski čas)
Maribor - BTŠ
Omočenost
lista
Padavine Relativna
vlaga
2
m
Temperatura
2
m
Smer
vetra
Hitrost
vetra
1 19.8.2019 06:00
2 19.8.2019 05:30
3 19.8.2019 05:00
4 19.8.2019 04:30 10 0 94.9 15 190.3 0.5
5 19.8.2019 04:00 10 0 93.1 15.8 36.1 0.6
6 19.8.2019 03:30 10 0 90.2 16.7 233.8 0.8
7 19.8.2019 03:00 10 0 88.8 17.3 304.1 1.8
8 19.8.2019 02:30 10 0 95.6 15.7 292.5 0.6
9 19.8.2019 02:00 10 0 95.5 16.1 354.4 0
10 19.8.2019 01:30 10 0 95.6 16.4 225.5 0
11 19.8.2019 01:00 10 0 95.8 16.6 213.5 0.2
12 19.8.2019 00:30 10 0 95.8 16.8 37.3 0.1
13 19.8.2019 00:00 10 0 95.4 16.7 73.5 0
14 18.8.2019 23:30 10 0 95.3 17 272.3 0.4
15 18.8.2019 23:00 10 0 94.6 17 287.3 0.1
16 18.8.2019 22:30 10 0 93 17.7 268 0.1
17 18.8.2019 22:00 10 0 92.1 18.2 322.6 0.3
18 18.8.2019 21:30 10 0 90.9 18.8 278.6 0.5
19 18.8.2019 21:00 9 0 88.7 19.4 341.7 0.4
20 18.8.2019 20:30 2 0 81.6 20.9 340.6 0.5
21 18.8.2019 20:00 0 0 71 22.7 346.2 1
22 18.8.2019 19:30 0 0 67.6 23.9 355.8 0.6
23 18.8.2019 19:00 0 0 57.8 26.4 52.5 1.7
24 18.8.2019 18:30 0 0 54.1 27.5 63 2.4
25 18.8.2019 18:00 0 0 52.6 28.3 207.6 2.4
26 18.8.2019 17:30 0 0 51.8 28.9 81.5 3.3
27 18.8.2019 17:00 0 0 50.5 29.4 58.9 3.1
28 18.8.2019 16:30 0 0 49.3 30 160.1 4.6
29 18.8.2019 16:00 0 0 49.7 30.5 34.9 3.3
30 18.8.2019 15:30 0 0 49 30.7 29.8 2.4
31 18.8.2019 15:00 0 0 48.6 30.6 52.3 3.2
32 18.8.2019 14:30 0 0 49.4 30.4 111.4 3.2
33 18.8.2019 14:00 0 0 50.8 29.8 84.7 3.2
34 18.8.2019 13:30 0 0 52.9 29.4 76.4 3
35 18.8.2019 13:00 0 0 54.1 29.1 118 3.4
36 18.8.2019 12:30 0 0 53.6 29.4 75.8 2.8
37 18.8.2019 12:00 0 0 53 29.3 72.9 2
38 18.8.2019 11:30 0 0 52.4 28.8 187 1.3
39 18.8.2019 11:00 0 0 55.2 28.2 349.7 1.6
40 18.8.2019 10:30 0 0 56 27.4 66.6 1.5
41 18.8.2019 10:00 0 0 58.5 26.4 155.7 2
42 18.8.2019 09:30 0 0 60.7 25.2 114.1 1.3
43 18.8.2019 09:00 0 0 63.6 23.9 93.1 1.4
44 18.8.2019 08:30 0 0 68.1 22.2 118.4 1.3
45 18.8.2019 08:00 0 0 70.2 21.1 134.9 1.3
46 18.8.2019 07:30 10 0 75.4 19.8 320.7 1
47 18.8.2019 07:00 10 0 83.9 18.1 314.2 0.7
48 18.8.2019 06:30 10 0 90 17.1 68.8 0.5
© 2011 Ministrstvo za kmetijstvo, gozdarstvo in prehrano. Vse pravice pridržane.